sensor_id;sensor_type;location;lat;lon;timestamp;P1;durP1;ratioP1;P2;durP2;ratioP2
25163;SDS011;13440;50.860;13.662;2023-07-20T00:01:44;11.07;;;7.28;;
25163;SDS011;13440;50.860;13.662;2023-07-20T00:04:10;14.50;;;8.07;;
25163;SDS011;13440;50.860;13.662;2023-07-20T00:06:36;9.85;;;7.70;;
25163;SDS011;13440;50.860;13.662;2023-07-20T00:09:05;9.98;;;7.55;;
25163;SDS011;13440;50.860;13.662;2023-07-20T00:11:32;11.60;;;7.00;;
25163;SDS011;13440;50.860;13.662;2023-07-20T00:14:00;10.48;;;7.80;;
25163;SDS011;13440;50.860;13.662;2023-07-20T00:16:26;12.75;;;7.18;;
25163;SDS011;13440;50.860;13.662;2023-07-20T00:18:51;9.85;;;6.75;;
25163;SDS011;13440;50.860;13.662;2023-07-20T00:21:17;9.63;;;7.13;;
25163;SDS011;13440;50.860;13.662;2023-07-20T00:23:42;9.75;;;8.23;;
25163;SDS011;13440;50.860;13.662;2023-07-20T00:26:07;8.25;;;7.20;;
25163;SDS011;13440;50.860;13.662;2023-07-20T00:28:33;10.35;;;7.00;;
25163;SDS011;13440;50.860;13.662;2023-07-20T00:30:59;11.32;;;7.53;;
25163;SDS011;13440;50.860;13.662;2023-07-20T00:33:24;10.20;;;6.45;;
25163;SDS011;13440;50.860;13.662;2023-07-20T00:35:51;8.50;;;6.55;;
25163;SDS011;13440;50.860;13.662;2023-07-20T00:38:16;9.98;;;6.47;;
25163;SDS011;13440;50.860;13.662;2023-07-20T00:40:42;8.57;;;6.70;;
25163;SDS011;13440;50.860;13.662;2023-07-20T00:43:07;10.65;;;6.43;;
25163;SDS011;13440;50.860;13.662;2023-07-20T00:45:33;7.80;;;6.18;;
25163;SDS011;13440;50.860;13.662;2023-07-20T00:47:59;7.20;;;6.05;;
25163;SDS011;13440;50.860;13.662;2023-07-20T00:50:25;8.82;;;6.03;;
25163;SDS011;13440;50.860;13.662;2023-07-20T00:52:51;11.18;;;6.35;;
25163;SDS011;13440;50.860;13.662;2023-07-20T00:55:18;9.32;;;6.32;;
25163;SDS011;13440;50.860;13.662;2023-07-20T00:57:44;9.57;;;6.88;;
25163;SDS011;13440;50.860;13.662;2023-07-20T01:00:09;10.82;;;7.30;;
25163;SDS011;13440;50.860;13.662;2023-07-20T01:02:35;10.80;;;6.95;;
25163;SDS011;13440;50.860;13.662;2023-07-20T01:05:02;10.45;;;7.47;;
25163;SDS011;13440;50.860;13.662;2023-07-20T01:10:06;11.13;;;8.48;;
25163;SDS011;13440;50.860;13.662;2023-07-20T01:12:43;10.52;;;7.97;;
25163;SDS011;13440;50.860;13.662;2023-07-20T01:15:11;11.00;;;8.20;;
25163;SDS011;13440;50.860;13.662;2023-07-20T01:17:37;10.23;;;7.68;;
25163;SDS011;13440;50.860;13.662;2023-07-20T01:20:02;10.73;;;7.55;;
25163;SDS011;13440;50.860;13.662;2023-07-20T01:28:02;9.20;;;7.35;;
25163;SDS011;13440;50.860;13.662;2023-07-20T01:33:20;11.25;;;8.30;;
25163;SDS011;13440;50.860;13.662;2023-07-20T01:35:52;10.43;;;8.25;;
25163;SDS011;13440;50.860;13.662;2023-07-20T01:38:19;8.70;;;7.53;;
25163;SDS011;13440;50.860;13.662;2023-07-20T01:40:48;9.13;;;8.25;;
25163;SDS011;13440;50.860;13.662;2023-07-20T01:43:14;10.40;;;8.35;;
25163;SDS011;13440;50.860;13.662;2023-07-20T01:45:39;11.13;;;9.43;;
25163;SDS011;13440;50.860;13.662;2023-07-20T01:48:04;10.18;;;9.20;;
25163;SDS011;13440;50.860;13.662;2023-07-20T01:50:30;14.48;;;11.10;;
25163;SDS011;13440;50.860;13.662;2023-07-20T01:52:57;16.50;;;11.95;;
25163;SDS011;13440;50.860;13.662;2023-07-20T01:55:24;16.85;;;12.20;;
25163;SDS011;13440;50.860;13.662;2023-07-20T01:57:49;13.88;;;12.50;;
25163;SDS011;13440;50.860;13.662;2023-07-20T02:00:15;14.65;;;12.95;;
25163;SDS011;13440;50.860;13.662;2023-07-20T02:02:41;16.40;;;12.52;;
25163;SDS011;13440;50.860;13.662;2023-07-20T02:05:06;14.90;;;13.27;;
25163;SDS011;13440;50.860;13.662;2023-07-20T02:07:32;15.68;;;14.15;;
25163;SDS011;13440;50.860;13.662;2023-07-20T02:09:58;17.00;;;14.57;;
25163;SDS011;13440;50.860;13.662;2023-07-20T02:12:23;16.33;;;14.20;;
25163;SDS011;13440;50.860;13.662;2023-07-20T02:14:48;16.17;;;14.50;;
25163;SDS011;13440;50.860;13.662;2023-07-20T02:17:15;16.23;;;14.52;;
25163;SDS011;13440;50.860;13.662;2023-07-20T02:19:40;15.68;;;13.65;;
25163;SDS011;13440;50.860;13.662;2023-07-20T02:22:06;18.42;;;13.80;;
25163;SDS011;13440;50.860;13.662;2023-07-20T02:24:32;15.38;;;13.88;;
25163;SDS011;13440;50.860;13.662;2023-07-20T02:26:58;15.70;;;14.13;;
25163;SDS011;13440;50.860;13.662;2023-07-20T02:29:23;15.57;;;13.98;;
25163;SDS011;13440;50.860;13.662;2023-07-20T02:31:49;17.73;;;15.68;;
25163;SDS011;13440;50.860;13.662;2023-07-20T02:34:14;18.10;;;14.90;;
25163;SDS011;13440;50.860;13.662;2023-07-20T02:36:40;21.80;;;15.80;;
25163;SDS011;13440;50.860;13.662;2023-07-20T02:39:07;17.85;;;14.50;;
25163;SDS011;13440;50.860;13.662;2023-07-20T02:41:33;15.52;;;13.93;;
25163;SDS011;13440;50.860;13.662;2023-07-20T02:43:58;16.70;;;13.15;;
25163;SDS011;13440;50.860;13.662;2023-07-20T02:46:24;16.52;;;13.50;;
25163;SDS011;13440;50.860;13.662;2023-07-20T02:48:49;15.57;;;13.75;;
25163;SDS011;13440;50.860;13.662;2023-07-20T02:51:15;13.93;;;12.23;;
25163;SDS011;13440;50.860;13.662;2023-07-20T02:53:40;16.13;;;13.52;;
25163;SDS011;13440;50.860;13.662;2023-07-20T02:56:06;14.82;;;13.20;;
25163;SDS011;13440;50.860;13.662;2023-07-20T02:58:33;16.10;;;14.43;;
25163;SDS011;13440;50.860;13.662;2023-07-20T03:01:02;15.50;;;13.90;;
25163;SDS011;13440;50.860;13.662;2023-07-20T03:03:27;16.05;;;13.65;;
25163;SDS011;13440;50.860;13.662;2023-07-20T03:05:52;16.23;;;14.15;;
25163;SDS011;13440;50.860;13.662;2023-07-20T03:08:19;20.60;;;13.90;;
25163;SDS011;13440;50.860;13.662;2023-07-20T03:10:45;16.05;;;14.35;;
25163;SDS011;13440;50.860;13.662;2023-07-20T03:13:10;20.90;;;14.75;;
25163;SDS011;13440;50.860;13.662;2023-07-20T03:15:36;16.02;;;12.88;;
25163;SDS011;13440;50.860;13.662;2023-07-20T03:18:01;13.80;;;12.38;;
25163;SDS011;13440;50.860;13.662;2023-07-20T03:20:28;15.27;;;13.70;;
25163;SDS011;13440;50.860;13.662;2023-07-20T03:22:53;16.10;;;11.75;;
25163;SDS011;13440;50.860;13.662;2023-07-20T03:25:19;14.95;;;13.35;;
25163;SDS011;13440;50.860;13.662;2023-07-20T03:27:44;14.63;;;12.95;;
25163;SDS011;13440;50.860;13.662;2023-07-20T03:30:10;14.75;;;12.63;;
25163;SDS011;13440;50.860;13.662;2023-07-20T03:32:37;14.15;;;12.32;;
25163;SDS011;13440;50.860;13.662;2023-07-20T03:35:02;17.38;;;13.50;;
25163;SDS011;13440;50.860;13.662;2023-07-20T03:37:28;14.13;;;12.55;;
25163;SDS011;13440;50.860;13.662;2023-07-20T03:39:53;14.35;;;12.95;;
25163;SDS011;13440;50.860;13.662;2023-07-20T03:42:19;15.32;;;13.35;;
25163;SDS011;13440;50.860;13.662;2023-07-20T03:44:44;14.95;;;12.55;;
25163;SDS011;13440;50.860;13.662;2023-07-20T03:47:09;15.63;;;13.95;;
25163;SDS011;13440;50.860;13.662;2023-07-20T03:49:35;19.33;;;13.93;;
25163;SDS011;13440;50.860;13.662;2023-07-20T03:52:00;15.60;;;13.88;;
25163;SDS011;13440;50.860;13.662;2023-07-20T03:54:28;18.10;;;14.02;;
25163;SDS011;13440;50.860;13.662;2023-07-20T03:56:54;16.23;;;13.98;;
25163;SDS011;13440;50.860;13.662;2023-07-20T03:59:20;14.38;;;12.88;;
25163;SDS011;13440;50.860;13.662;2023-07-20T04:01:45;14.15;;;12.73;;
25163;SDS011;13440;50.860;13.662;2023-07-20T04:04:11;13.45;;;12.15;;
25163;SDS011;13440;50.860;13.662;2023-07-20T04:06:36;14.20;;;12.73;;
25163;SDS011;13440;50.860;13.662;2023-07-20T04:09:02;13.68;;;12.23;;
25163;SDS011;13440;50.860;13.662;2023-07-20T04:11:28;14.23;;;11.63;;
25163;SDS011;13440;50.860;13.662;2023-07-20T04:13:53;13.52;;;12.05;;
25163;SDS011;13440;50.860;13.662;2023-07-20T04:16:21;14.68;;;11.70;;
25163;SDS011;13440;50.860;13.662;2023-07-20T04:18:47;13.95;;;12.45;;
25163;SDS011;13440;50.860;13.662;2023-07-20T04:21:12;12.75;;;11.55;;
25163;SDS011;13440;50.860;13.662;2023-07-20T04:23:37;15.60;;;12.02;;
25163;SDS011;13440;50.860;13.662;2023-07-20T04:26:03;13.73;;;12.07;;
25163;SDS011;13440;50.860;13.662;2023-07-20T04:28:29;12.50;;;11.20;;
25163;SDS011;13440;50.860;13.662;2023-07-20T04:30:58;15.65;;;11.98;;
25163;SDS011;13440;50.860;13.662;2023-07-20T04:33:34;13.48;;;12.05;;
25163;SDS011;13440;50.860;13.662;2023-07-20T04:36:00;14.93;;;12.50;;
25163;SDS011;13440;50.860;13.662;2023-07-20T04:38:32;16.17;;;13.93;;
25163;SDS011;13440;50.860;13.662;2023-07-20T04:41:04;16.08;;;13.85;;
25163;SDS011;13440;50.860;13.662;2023-07-20T04:43:34;15.05;;;13.43;;
25163;SDS011;13440;50.860;13.662;2023-07-20T04:46:00;14.27;;;12.85;;
25163;SDS011;13440;50.860;13.662;2023-07-20T04:48:26;13.80;;;12.40;;
25163;SDS011;13440;50.860;13.662;2023-07-20T04:50:53;13.20;;;11.80;;
25163;SDS011;13440;50.860;13.662;2023-07-20T04:53:19;13.30;;;12.00;;
25163;SDS011;13440;50.860;13.662;2023-07-20T04:55:48;15.68;;;12.10;;
25163;SDS011;13440;50.860;13.662;2023-07-20T04:58:16;14.82;;;12.20;;
25163;SDS011;13440;50.860;13.662;2023-07-20T05:00:43;13.52;;;11.88;;
25163;SDS011;13440;50.860;13.662;2023-07-20T05:03:08;35.15;;;26.38;;
25163;SDS011;13440;50.860;13.662;2023-07-20T05:05:34;63.65;;;44.25;;
25163;SDS011;13440;50.860;13.662;2023-07-20T05:07:59;16.20;;;12.88;;
25163;SDS011;13440;50.860;13.662;2023-07-20T05:10:25;13.70;;;12.15;;
25163;SDS011;13440;50.860;13.662;2023-07-20T05:12:51;12.60;;;11.27;;
25163;SDS011;13440;50.860;13.662;2023-07-20T05:15:16;13.10;;;11.60;;
25163;SDS011;13440;50.860;13.662;2023-07-20T05:17:42;16.83;;;12.60;;
25163;SDS011;13440;50.860;13.662;2023-07-20T05:20:07;14.32;;;11.63;;
25163;SDS011;13440;50.860;13.662;2023-07-20T05:22:35;15.13;;;13.52;;
25163;SDS011;13440;50.860;13.662;2023-07-20T05:25:05;29.67;;;23.30;;
25163;SDS011;13440;50.860;13.662;2023-07-20T05:27:31;32.55;;;22.77;;
25163;SDS011;13440;50.860;13.662;2023-07-20T05:29:57;18.20;;;14.57;;
25163;SDS011;13440;50.860;13.662;2023-07-20T05:32:22;29.50;;;22.83;;
25163;SDS011;13440;50.860;13.662;2023-07-20T05:34:50;14.35;;;10.57;;
25163;SDS011;13440;50.860;13.662;2023-07-20T05:37:17;15.25;;;10.38;;
25163;SDS011;13440;50.860;13.662;2023-07-20T05:39:42;10.32;;;9.30;;
25163;SDS011;13440;50.860;13.662;2023-07-20T05:42:08;12.90;;;9.13;;
25163;SDS011;13440;50.860;13.662;2023-07-20T05:44:33;10.18;;;8.60;;
25163;SDS011;13440;50.860;13.662;2023-07-20T05:46:59;9.23;;;7.10;;
25163;SDS011;13440;50.860;13.662;2023-07-20T05:49:24;10.07;;;7.25;;
25163;SDS011;13440;50.860;13.662;2023-07-20T05:51:50;9.20;;;6.88;;
25163;SDS011;13440;50.860;13.662;2023-07-20T05:54:15;9.98;;;7.00;;
25163;SDS011;13440;50.860;13.662;2023-07-20T05:56:41;62.33;;;44.75;;
25163;SDS011;13440;50.860;13.662;2023-07-20T05:59:06;22.10;;;17.15;;
25163;SDS011;13440;50.860;13.662;2023-07-20T06:01:32;18.13;;;14.85;;
25163;SDS011;13440;50.860;13.662;2023-07-20T06:03:57;21.65;;;16.60;;
25163;SDS011;13440;50.860;13.662;2023-07-20T06:06:23;10.65;;;8.75;;
25163;SDS011;13440;50.860;13.662;2023-07-20T06:08:48;11.07;;;8.35;;
25163;SDS011;13440;50.860;13.662;2023-07-20T06:11:13;8.25;;;6.22;;
25163;SDS011;13440;50.860;13.662;2023-07-20T06:13:39;8.10;;;6.47;;
25163;SDS011;13440;50.860;13.662;2023-07-20T06:16:04;8.50;;;6.97;;
25163;SDS011;13440;50.860;13.662;2023-07-20T06:18:30;8.35;;;7.47;;
25163;SDS011;13440;50.860;13.662;2023-07-20T06:20:56;9.23;;;7.90;;
25163;SDS011;13440;50.860;13.662;2023-07-20T06:23:21;9.25;;;7.80;;
25163;SDS011;13440;50.860;13.662;2023-07-20T06:25:47;7.70;;;6.70;;
25163;SDS011;13440;50.860;13.662;2023-07-20T06:28:13;10.00;;;7.55;;
25163;SDS011;13440;50.860;13.662;2023-07-20T06:30:38;11.77;;;7.10;;
25163;SDS011;13440;50.860;13.662;2023-07-20T06:33:04;9.02;;;7.63;;
25163;SDS011;13440;50.860;13.662;2023-07-20T06:35:29;10.77;;;8.13;;
25163;SDS011;13440;50.860;13.662;2023-07-20T06:37:54;10.23;;;8.82;;
25163;SDS011;13440;50.860;13.662;2023-07-20T06:40:20;14.68;;;9.35;;
25163;SDS011;13440;50.860;13.662;2023-07-20T06:42:46;14.93;;;10.30;;
25163;SDS011;13440;50.860;13.662;2023-07-20T06:45:11;12.05;;;9.05;;
25163;SDS011;13440;50.860;13.662;2023-07-20T06:47:40;12.95;;;9.05;;
25163;SDS011;13440;50.860;13.662;2023-07-20T06:50:09;10.15;;;6.47;;
25163;SDS011;13440;50.860;13.662;2023-07-20T06:52:35;6.32;;;5.72;;
25163;SDS011;13440;50.860;13.662;2023-07-20T06:55:00;6.38;;;5.75;;
25163;SDS011;13440;50.860;13.662;2023-07-20T06:57:26;7.15;;;5.90;;
25163;SDS011;13440;50.860;13.662;2023-07-20T06:59:51;6.70;;;5.85;;
25163;SDS011;13440;50.860;13.662;2023-07-20T07:02:17;7.25;;;6.55;;
25163;SDS011;13440;50.860;13.662;2023-07-20T07:04:42;6.70;;;6.10;;
25163;SDS011;13440;50.860;13.662;2023-07-20T07:07:08;5.85;;;5.35;;
25163;SDS011;13440;50.860;13.662;2023-07-20T07:09:34;5.38;;;4.97;;
25163;SDS011;13440;50.860;13.662;2023-07-20T07:11:59;5.60;;;5.10;;
25163;SDS011;13440;50.860;13.662;2023-07-20T07:14:25;5.15;;;4.57;;
25163;SDS011;13440;50.860;13.662;2023-07-20T07:16:50;6.68;;;4.85;;
25163;SDS011;13440;50.860;13.662;2023-07-20T07:19:16;5.03;;;4.15;;
25163;SDS011;13440;50.860;13.662;2023-07-20T07:21:41;4.72;;;4.00;;
25163;SDS011;13440;50.860;13.662;2023-07-20T07:24:06;3.40;;;3.05;;
25163;SDS011;13440;50.860;13.662;2023-07-20T07:26:33;4.53;;;3.80;;
25163;SDS011;13440;50.860;13.662;2023-07-20T07:28:58;3.45;;;3.15;;
25163;SDS011;13440;50.860;13.662;2023-07-20T07:31:28;3.08;;;2.78;;
25163;SDS011;13440;50.860;13.662;2023-07-20T07:33:53;3.08;;;2.78;;
25163;SDS011;13440;50.860;13.662;2023-07-20T07:36:19;5.15;;;4.63;;
25163;SDS011;13440;50.860;13.662;2023-07-20T07:38:44;15.23;;;11.35;;
25163;SDS011;13440;50.860;13.662;2023-07-20T07:41:10;3.30;;;3.10;;
25163;SDS011;13440;50.860;13.662;2023-07-20T07:43:35;6.53;;;5.85;;
25163;SDS011;13440;50.860;13.662;2023-07-20T07:46:00;3.40;;;2.90;;
25163;SDS011;13440;50.860;13.662;2023-07-20T07:48:27;2.50;;;2.30;;
25163;SDS011;13440;50.860;13.662;2023-07-20T07:50:53;3.97;;;2.22;;
25163;SDS011;13440;50.860;13.662;2023-07-20T07:53:19;5.10;;;4.63;;
25163;SDS011;13440;50.860;13.662;2023-07-20T07:55:45;79.22;;;55.70;;
25163;SDS011;13440;50.860;13.662;2023-07-20T07:58:12;21.00;;;14.95;;
25163;SDS011;13440;50.860;13.662;2023-07-20T08:00:38;7.82;;;6.35;;
25163;SDS011;13440;50.860;13.662;2023-07-20T08:03:05;3.20;;;2.08;;
25163;SDS011;13440;50.860;13.662;2023-07-20T08:05:31;2.47;;;2.28;;
25163;SDS011;13440;50.860;13.662;2023-07-20T08:07:56;3.83;;;2.83;;
25163;SDS011;13440;50.860;13.662;2023-07-20T08:10:22;2.42;;;2.00;;
25163;SDS011;13440;50.860;13.662;2023-07-20T08:12:47;3.47;;;2.42;;
25163;SDS011;13440;50.860;13.662;2023-07-20T08:15:13;3.50;;;1.90;;
25163;SDS011;13440;50.860;13.662;2023-07-20T08:17:40;2.60;;;2.10;;
25163;SDS011;13440;50.860;13.662;2023-07-20T08:20:07;2.75;;;2.50;;
25163;SDS011;13440;50.860;13.662;2023-07-20T08:22:36;1.80;;;1.70;;
25163;SDS011;13440;50.860;13.662;2023-07-20T08:25:01;2.60;;;2.40;;
25163;SDS011;13440;50.860;13.662;2023-07-20T08:27:26;2.70;;;2.40;;
25163;SDS011;13440;50.860;13.662;2023-07-20T08:29:52;2.45;;;2.20;;
25163;SDS011;13440;50.860;13.662;2023-07-20T08:32:17;2.05;;;1.85;;
25163;SDS011;13440;50.860;13.662;2023-07-20T08:34:43;2.10;;;1.90;;
25163;SDS011;13440;50.860;13.662;2023-07-20T08:37:08;2.13;;;1.90;;
25163;SDS011;13440;50.860;13.662;2023-07-20T08:39:35;1.92;;;1.80;;
25163;SDS011;13440;50.860;13.662;2023-07-20T08:42:01;2.40;;;2.20;;
25163;SDS011;13440;50.860;13.662;2023-07-20T08:44:34;3.05;;;2.05;;
25163;SDS011;13440;50.860;13.662;2023-07-20T08:47:01;2.58;;;2.10;;
25163;SDS011;13440;50.860;13.662;2023-07-20T08:49:31;2.95;;;2.25;;
25163;SDS011;13440;50.860;13.662;2023-07-20T08:51:57;2.28;;;2.08;;
25163;SDS011;13440;50.860;13.662;2023-07-20T08:54:23;2.40;;;2.22;;
25163;SDS011;13440;50.860;13.662;2023-07-20T08:56:49;9.73;;;2.65;;
25163;SDS011;13440;50.860;13.662;2023-07-20T08:59:16;4.85;;;2.53;;
25163;SDS011;13440;50.860;13.662;2023-07-20T09:01:42;2.15;;;2.00;;
25163;SDS011;13440;50.860;13.662;2023-07-20T09:04:08;3.30;;;2.45;;
25163;SDS011;13440;50.860;13.662;2023-07-20T09:06:35;3.00;;;2.13;;
25163;SDS011;13440;50.860;13.662;2023-07-20T09:09:00;2.25;;;2.00;;
25163;SDS011;13440;50.860;13.662;2023-07-20T09:11:26;2.40;;;2.00;;
25163;SDS011;13440;50.860;13.662;2023-07-20T09:14:07;3.05;;;2.38;;
25163;SDS011;13440;50.860;13.662;2023-07-20T09:16:49;2.88;;;2.05;;
25163;SDS011;13440;50.860;13.662;2023-07-20T09:19:17;4.37;;;2.40;;
25163;SDS011;13440;50.860;13.662;2023-07-20T09:21:49;3.67;;;2.28;;
25163;SDS011;13440;50.860;13.662;2023-07-20T09:24:16;2.33;;;1.98;;
25163;SDS011;13440;50.860;13.662;2023-07-20T09:26:43;3.25;;;2.10;;
25163;SDS011;13440;50.860;13.662;2023-07-20T09:29:09;3.13;;;2.20;;
25163;SDS011;13440;50.860;13.662;2023-07-20T09:31:38;2.60;;;2.30;;
25163;SDS011;13440;50.860;13.662;2023-07-20T09:34:06;2.65;;;2.42;;
25163;SDS011;13440;50.860;13.662;2023-07-20T09:36:35;2.20;;;2.00;;
25163;SDS011;13440;50.860;13.662;2023-07-20T09:39:01;2.15;;;1.83;;
25163;SDS011;13440;50.860;13.662;2023-07-20T09:41:28;3.17;;;2.38;;
25163;SDS011;13440;50.860;13.662;2023-07-20T09:43:54;4.18;;;2.45;;
25163;SDS011;13440;50.860;13.662;2023-07-20T09:46:19;2.80;;;2.50;;
25163;SDS011;13440;50.860;13.662;2023-07-20T09:48:54;3.00;;;2.22;;
25163;SDS011;13440;50.860;13.662;2023-07-20T09:51:21;4.50;;;2.00;;
25163;SDS011;13440;50.860;13.662;2023-07-20T09:53:48;3.47;;;2.10;;
25163;SDS011;13440;50.860;13.662;2023-07-20T09:56:13;1.92;;;1.83;;
25163;SDS011;13440;50.860;13.662;2023-07-20T09:58:41;2.85;;;2.15;;
25163;SDS011;13440;50.860;13.662;2023-07-20T10:01:08;3.95;;;1.98;;
25163;SDS011;13440;50.860;13.662;2023-07-20T10:03:34;2.30;;;2.03;;
25163;SDS011;13440;50.860;13.662;2023-07-20T10:06:02;3.15;;;1.92;;
25163;SDS011;13440;50.860;13.662;2023-07-20T10:08:31;2.72;;;2.13;;
25163;SDS011;13440;50.860;13.662;2023-07-20T10:10:59;2.42;;;2.08;;
25163;SDS011;13440;50.860;13.662;2023-07-20T10:13:26;2.70;;;2.20;;
25163;SDS011;13440;50.860;13.662;2023-07-20T10:16:01;2.47;;;1.90;;
25163;SDS011;13440;50.860;13.662;2023-07-20T10:21:07;3.65;;;2.05;;
25163;SDS011;13440;50.860;13.662;2023-07-20T10:23:34;2.90;;;2.22;;
25163;SDS011;13440;50.860;13.662;2023-07-20T10:26:00;9.07;;;2.25;;
25163;SDS011;13440;50.860;13.662;2023-07-20T10:28:26;3.78;;;2.30;;
25163;SDS011;13440;50.860;13.662;2023-07-20T10:30:52;2.10;;;1.90;;
25163;SDS011;13440;50.860;13.662;2023-07-20T10:33:18;4.00;;;2.53;;
25163;SDS011;13440;50.860;13.662;2023-07-20T10:35:54;2.45;;;2.00;;
25163;SDS011;13440;50.860;13.662;2023-07-20T10:41:03;6.63;;;5.35;;
25163;SDS011;13440;50.860;13.662;2023-07-20T10:43:28;3.80;;;2.95;;
25163;SDS011;13440;50.860;13.662;2023-07-20T10:45:53;2.85;;;2.47;;
25163;SDS011;13440;50.860;13.662;2023-07-20T10:48:23;3.75;;;2.92;;
25163;SDS011;13440;50.860;13.662;2023-07-20T10:51:08;7.60;;;3.70;;
25163;SDS011;13440;50.860;13.662;2023-07-20T10:53:38;8.30;;;4.70;;
25163;SDS011;13440;50.860;13.662;2023-07-20T10:56:08;4.70;;;3.25;;
25163;SDS011;13440;50.860;13.662;2023-07-20T10:58:36;3.80;;;3.05;;
25163;SDS011;13440;50.860;13.662;2023-07-20T11:01:02;5.15;;;3.70;;
25163;SDS011;13440;50.860;13.662;2023-07-20T11:03:38;4.15;;;2.33;;
25163;SDS011;13440;50.860;13.662;2023-07-20T11:08:48;4.07;;;3.70;;
25163;SDS011;13440;50.860;13.662;2023-07-20T11:11:26;3.45;;;2.50;;
25163;SDS011;13440;50.860;13.662;2023-07-20T11:13:57;3.63;;;2.78;;
25163;SDS011;13440;50.860;13.662;2023-07-20T11:18:58;5.68;;;2.78;;
25163;SDS011;13440;50.860;13.662;2023-07-20T11:21:24;3.13;;;2.38;;
25163;SDS011;13440;50.860;13.662;2023-07-20T11:23:50;3.58;;;2.40;;
25163;SDS011;13440;50.860;13.662;2023-07-20T11:26:17;3.00;;;2.55;;
25163;SDS011;13440;50.860;13.662;2023-07-20T11:28:48;2.33;;;2.13;;
25163;SDS011;13440;50.860;13.662;2023-07-20T11:31:14;5.95;;;3.42;;
25163;SDS011;13440;50.860;13.662;2023-07-20T11:33:41;3.25;;;2.70;;
25163;SDS011;13440;50.860;13.662;2023-07-20T11:36:08;3.53;;;2.92;;
25163;SDS011;13440;50.860;13.662;2023-07-20T11:38:33;3.92;;;2.92;;
25163;SDS011;13440;50.860;13.662;2023-07-20T11:40:59;4.15;;;2.38;;
25163;SDS011;13440;50.860;13.662;2023-07-20T11:43:24;3.65;;;2.53;;
25163;SDS011;13440;50.860;13.662;2023-07-20T11:45:51;3.60;;;2.45;;
25163;SDS011;13440;50.860;13.662;2023-07-20T11:48:16;5.95;;;2.50;;
25163;SDS011;13440;50.860;13.662;2023-07-20T11:50:42;2.42;;;2.20;;
25163;SDS011;13440;50.860;13.662;2023-07-20T11:53:08;4.03;;;2.17;;
25163;SDS011;13440;50.860;13.662;2023-07-20T11:55:33;4.88;;;2.80;;
25163;SDS011;13440;50.860;13.662;2023-07-20T11:58:02;3.60;;;2.45;;
25163;SDS011;13440;50.860;13.662;2023-07-20T12:00:35;3.33;;;2.30;;
25163;SDS011;13440;50.860;13.662;2023-07-20T12:03:01;3.38;;;2.30;;
25163;SDS011;13440;50.860;13.662;2023-07-20T12:05:26;5.13;;;2.22;;
25163;SDS011;13440;50.860;13.662;2023-07-20T12:07:52;3.03;;;2.13;;
25163;SDS011;13440;50.860;13.662;2023-07-20T12:10:23;4.18;;;2.20;;
25163;SDS011;13440;50.860;13.662;2023-07-20T12:12:50;3.10;;;2.20;;
25163;SDS011;13440;50.860;13.662;2023-07-20T12:15:25;4.18;;;1.90;;
25163;SDS011;13440;50.860;13.662;2023-07-20T12:17:56;3.45;;;1.83;;
25163;SDS011;13440;50.860;13.662;2023-07-20T12:20:26;2.97;;;1.95;;
25163;SDS011;13440;50.860;13.662;2023-07-20T12:23:03;2.83;;;1.80;;
25163;SDS011;13440;50.860;13.662;2023-07-20T12:25:36;2.55;;;1.63;;
25163;SDS011;13440;50.860;13.662;2023-07-20T12:28:10;2.25;;;1.75;;
25163;SDS011;13440;50.860;13.662;2023-07-20T12:30:37;3.28;;;1.73;;
25163;SDS011;13440;50.860;13.662;2023-07-20T12:33:03;3.15;;;1.90;;
25163;SDS011;13440;50.860;13.662;2023-07-20T12:35:29;2.30;;;1.63;;
25163;SDS011;13440;50.860;13.662;2023-07-20T12:37:55;2.25;;;1.65;;
25163;SDS011;13440;50.860;13.662;2023-07-20T12:40:21;2.75;;;2.08;;
25163;SDS011;13440;50.860;13.662;2023-07-20T12:42:46;2.20;;;2.00;;
25163;SDS011;13440;50.860;13.662;2023-07-20T12:45:12;2.92;;;1.70;;
25163;SDS011;13440;50.860;13.662;2023-07-20T12:47:38;4.88;;;4.47;;
25163;SDS011;13440;50.860;13.662;2023-07-20T12:50:04;6.05;;;5.63;;
25163;SDS011;13440;50.860;13.662;2023-07-20T12:52:31;3.88;;;3.13;;
25163;SDS011;13440;50.860;13.662;2023-07-20T12:54:57;3.38;;;2.83;;
25163;SDS011;13440;50.860;13.662;2023-07-20T12:57:23;2.80;;;2.60;;
25163;SDS011;13440;50.860;13.662;2023-07-20T12:59:48;3.92;;;2.63;;
25163;SDS011;13440;50.860;13.662;2023-07-20T13:02:14;2.67;;;2.30;;
25163;SDS011;13440;50.860;13.662;2023-07-20T13:04:39;3.65;;;2.47;;
25163;SDS011;13440;50.860;13.662;2023-07-20T13:07:05;5.72;;;3.03;;
25163;SDS011;13440;50.860;13.662;2023-07-20T13:09:33;4.68;;;3.55;;
25163;SDS011;13440;50.860;13.662;2023-07-20T13:11:58;3.97;;;3.58;;
25163;SDS011;13440;50.860;13.662;2023-07-20T13:14:23;3.88;;;3.38;;
25163;SDS011;13440;50.860;13.662;2023-07-20T13:16:49;4.10;;;3.80;;
25163;SDS011;13440;50.860;13.662;2023-07-20T13:19:14;5.10;;;3.33;;
25163;SDS011;13440;50.860;13.662;2023-07-20T13:21:39;3.95;;;3.30;;
25163;SDS011;13440;50.860;13.662;2023-07-20T13:24:05;4.65;;;2.90;;
25163;SDS011;13440;50.860;13.662;2023-07-20T13:26:30;3.42;;;2.20;;
25163;SDS011;13440;50.860;13.662;2023-07-20T13:28:56;2.13;;;1.90;;
25163;SDS011;13440;50.860;13.662;2023-07-20T13:31:22;2.22;;;1.98;;
25163;SDS011;13440;50.860;13.662;2023-07-20T13:33:47;2.00;;;1.73;;
25163;SDS011;13440;50.860;13.662;2023-07-20T13:36:13;2.58;;;2.05;;
25163;SDS011;13440;50.860;13.662;2023-07-20T13:38:38;3.38;;;2.10;;
25163;SDS011;13440;50.860;13.662;2023-07-20T13:41:03;2.50;;;2.03;;
25163;SDS011;13440;50.860;13.662;2023-07-20T13:43:29;2.47;;;2.28;;
25163;SDS011;13440;50.860;13.662;2023-07-20T13:45:54;2.70;;;2.50;;
25163;SDS011;13440;50.860;13.662;2023-07-20T13:48:19;3.30;;;3.00;;
25163;SDS011;13440;50.860;13.662;2023-07-20T13:50:48;3.38;;;2.83;;
25163;SDS011;13440;50.860;13.662;2023-07-20T13:53:13;3.22;;;2.70;;
25163;SDS011;13440;50.860;13.662;2023-07-20T13:55:39;3.28;;;2.97;;
25163;SDS011;13440;50.860;13.662;2023-07-20T13:58:04;3.63;;;2.47;;
25163;SDS011;13440;50.860;13.662;2023-07-20T14:00:30;2.90;;;2.70;;
25163;SDS011;13440;50.860;13.662;2023-07-20T14:02:58;2.90;;;2.70;;
25163;SDS011;13440;50.860;13.662;2023-07-20T14:05:24;3.63;;;3.20;;
25163;SDS011;13440;50.860;13.662;2023-07-20T14:07:49;4.18;;;3.78;;
25163;SDS011;13440;50.860;13.662;2023-07-20T14:10:15;3.53;;;3.03;;
25163;SDS011;13440;50.860;13.662;2023-07-20T14:12:40;3.47;;;3.17;;
25163;SDS011;13440;50.860;13.662;2023-07-20T14:15:06;3.67;;;3.38;;
25163;SDS011;13440;50.860;13.662;2023-07-20T14:17:31;3.38;;;3.08;;
25163;SDS011;13440;50.860;13.662;2023-07-20T14:19:57;2.88;;;2.40;;
25163;SDS011;13440;50.860;13.662;2023-07-20T14:22:22;4.85;;;3.60;;
25163;SDS011;13440;50.860;13.662;2023-07-20T14:24:48;4.07;;;3.13;;
25163;SDS011;13440;50.860;13.662;2023-07-20T14:27:14;3.70;;;3.33;;
25163;SDS011;13440;50.860;13.662;2023-07-20T14:29:39;2.90;;;2.65;;
25163;SDS011;13440;50.860;13.662;2023-07-20T14:32:05;2.50;;;2.30;;
25163;SDS011;13440;50.860;13.662;2023-07-20T14:34:32;2.75;;;2.17;;
25163;SDS011;13440;50.860;13.662;2023-07-20T14:37:01;2.45;;;2.00;;
25163;SDS011;13440;50.860;13.662;2023-07-20T14:39:27;1.80;;;1.70;;
25163;SDS011;13440;50.860;13.662;2023-07-20T14:41:53;3.10;;;2.20;;
25163;SDS011;13440;50.860;13.662;2023-07-20T14:44:18;2.10;;;1.90;;